Meteo Giornale » Osservazioni meteo Italia » Capo Mele

ore: 23:55 - Osservazioni Meteo Capo Mele
Lat. 43° 57' N Lon. 8° 10' E Alt. 220 metri s.l.m.

poco_nuvoloso Europe/Rome

17 °C

Poco Nuvoloso

Temp. 24 Ore

15 °C

21 °C

Nord

1.8 Km/h

Dew point 14 °C

Umidità 82 %

Visibilità  10 Km

Il sole sorge alle ore 07:12

Il sole tramonta alle ore 19:27

Data e Ora Cielo e Fenomeni T °C DP °C Um. % Pres. hPa Vis. km Vento km/h
Ieri h: 23:55 poco_nuvoloso Poco Nuvoloso 17 14 82 1020 10 N 1.8
Ieri h: 22:55 poco_nuvoloso Poco Nuvoloso 17 14 82 1020 10 N 3.7
Ieri h: 21:55 poco_nuvoloso Poco Nuvoloso 17 13 77 1020 10 S 7.4
Ieri h: 20:55 poco_nuvoloso Poco Nuvoloso 17 13 77 1020 10 S/SE 9.3
Ieri h: 19:55 poco_nuvoloso Poco Nuvoloso 17 13 77 1019 10 N 0
Ieri h: 18:55 poco_nuvoloso Poco Nuvoloso 19 13 68 1019 10 N 0
Ieri h: 17:55 poco_nuvoloso Poco Nuvoloso 20 13 64 1019 10 N 5.5
Ieri h: 16:55 poco_nuvoloso Poco Nuvoloso 20 13 64 1019 10 S 9.3
Ieri h: 15:55 poco_nuvoloso Poco Nuvoloso 21 14 64 1019 10 S 11.1
Ieri h: 14:55 poco_nuvoloso Poco Nuvoloso 21 14 64 1020 10 N 3.7
Ieri h: 13:55 poco_nuvoloso Poco Nuvoloso 21 14 64 1020 10 N 0
Ieri h: 12:55 sereno Sereno 21 13 60 1020 10 N 0
Ieri h: 11:55 sereno Sereno 21 12 56 1020 10 N 3.7
Ieri h: 10:55 sereno Sereno 20 11 56 1019 10 N 0
Ieri h: 09:55 sereno Sereno 18 10 59 1019 10 N 0
Ieri h: 08:55 sereno Sereno 15 9 67 1018 10 N 0
Ieri h: 07:55 sereno Sereno 16 7 55 1018 10 N 5.5
Ieri h: 06:55 sereno Sereno 16 7 55 1018 10 N 9.3
Ieri h: 05:55 sereno Sereno 16 5 47 1018 10 N 0
Ieri h: 04:55 sereno Sereno 16 4 44 1018 10 N 0
Ieri h: 03:55 sereno Sereno 16 4 44 1018 10 N 5.5
Ieri h: 02:55 sereno Sereno 17 2 36 1017 10 N 1.8
Ieri h: 01:55 sereno Sereno 17 3 39 1017 10 O/SO 13